createdAt,value
2019-06-07T00:01:09.570Z,99.90
2019-06-07T00:03:38.094Z,99.90
2019-06-07T00:06:07.242Z,99.90
2019-06-07T00:08:36.694Z,99.90
2019-06-07T00:11:07.262Z,99.90
2019-06-07T00:13:35.524Z,99.90
2019-06-07T00:16:04.043Z,99.90
2019-06-07T00:18:32.426Z,99.90
2019-06-07T00:21:00.891Z,99.90
2019-06-07T00:23:29.275Z,99.90
2019-06-07T00:25:57.722Z,99.90
2019-06-07T00:28:26.135Z,99.90
2019-06-07T00:30:54.569Z,99.90
2019-06-07T00:33:24.922Z,99.90
2019-06-07T00:35:53.168Z,99.90
2019-06-07T00:38:22.059Z,99.90
2019-06-07T00:40:50.628Z,99.90
2019-06-07T00:43:25.836Z,99.90
2019-06-07T00:45:49.559Z,99.90
2019-06-07T00:48:27.451Z,99.90
2019-06-07T00:50:48.289Z,99.90
2019-06-07T00:53:21.636Z,99.90
2019-06-07T00:55:46.920Z,99.90
2019-06-07T00:58:17.182Z,99.90
2019-06-07T01:00:45.673Z,99.90
2019-06-07T01:03:14.990Z,99.90
2019-06-07T01:05:43.681Z,99.90
2019-06-07T01:08:14.863Z,99.90
2019-06-07T01:10:54.520Z,99.90
2019-06-07T01:13:15.122Z,99.90
2019-06-07T01:15:43.451Z,99.90
2019-06-07T01:18:36.019Z,99.90
2019-06-07T01:20:42.092Z,99.90
2019-06-07T01:23:52.006Z,99.90
2019-06-07T01:25:40.695Z,99.90
2019-06-07T01:28:09.135Z,99.90
2019-06-07T01:30:37.856Z,99.90
2019-06-07T01:33:06.424Z,99.90
2019-06-07T01:35:34.929Z,99.90
2019-06-07T01:38:03.438Z,99.90
2019-06-07T01:40:32.907Z,99.90
2019-06-07T01:43:01.699Z,99.90
2019-06-07T01:45:31.149Z,99.90
2019-06-07T01:47:59.975Z,99.90
2019-06-07T01:50:29.739Z,99.90
2019-06-07T01:52:58.318Z,99.90
2019-06-07T01:55:29.812Z,99.90
2019-06-07T01:57:56.880Z,99.90
2019-06-07T02:00:26.592Z,99.90
2019-06-07T02:02:55.710Z,99.90
2019-06-07T02:05:29.911Z,99.90
2019-06-07T02:07:54.478Z,99.90
2019-06-07T02:10:26.107Z,99.90
2019-06-07T02:12:53.408Z,99.90
2019-06-07T02:15:25.055Z,99.90
2019-06-07T02:17:52.216Z,99.90
2019-06-07T02:20:23.141Z,99.90
2019-06-07T02:22:51.220Z,99.90
2019-06-07T02:25:43.663Z,99.90
2019-06-07T02:27:49.817Z,99.90
2019-06-07T02:32:49.040Z,99.90
2019-06-07T02:35:18.525Z,99.90
2019-06-07T02:37:46.935Z,99.90
2019-06-07T02:40:16.547Z,99.90
2019-06-07T02:42:45.050Z,99.90
2019-06-07T02:45:13.644Z,99.90
2019-06-07T02:47:43.922Z,99.90
2019-06-07T02:50:14.535Z,99.90
2019-06-07T02:52:42.989Z,99.90
2019-06-07T02:55:13.160Z,99.90
2019-06-07T02:57:43.076Z,99.90
2019-06-07T03:00:41.389Z,99.90
2019-06-07T03:02:44.792Z,99.90
2019-06-07T03:05:13.565Z,99.90
2019-06-07T03:07:45.096Z,99.90
2019-06-07T03:10:12.922Z,99.90
2019-06-07T03:12:43.102Z,99.90
2019-06-07T03:15:30.140Z,99.90
2019-06-07T03:17:54.022Z,99.90
2019-06-07T03:20:24.139Z,99.90
2019-06-07T03:22:52.796Z,99.90
2019-06-07T03:25:21.273Z,99.90
2019-06-07T03:27:50.774Z,99.90
2019-06-07T03:30:40.106Z,99.90
2019-06-07T03:32:49.660Z,99.90
2019-06-07T03:35:18.166Z,99.90
2019-06-07T03:37:46.573Z,99.90
2019-06-07T03:40:15.242Z,99.90
2019-06-07T03:42:43.708Z,99.90
2019-06-07T03:45:12.287Z,99.90
2019-06-07T03:47:42.594Z,99.90
2019-06-07T03:50:11.097Z,99.90
2019-06-07T03:52:41.508Z,99.90
2019-06-07T03:55:10.241Z,99.90
2019-06-07T03:58:29.211Z,99.90
2019-06-07T04:00:10.413Z,99.90
2019-06-07T04:02:41.911Z,99.90
2019-06-07T04:05:09.409Z,99.90
2019-06-07T04:07:43.393Z,99.90
2019-06-07T04:10:08.477Z,99.90
2019-06-07T04:12:40.023Z,99.90
2019-06-07T04:15:07.436Z,99.90
2019-06-07T04:17:37.065Z,99.90
2019-06-07T04:20:09.614Z,99.90
2019-06-07T04:22:40.485Z,99.90
2019-06-07T04:25:09.622Z,99.90
2019-06-07T04:27:40.481Z,99.90
2019-06-07T04:30:09.172Z,99.90
2019-06-07T04:32:44.059Z,99.90
2019-06-07T04:35:08.166Z,99.90
2019-06-07T04:37:41.014Z,99.90
2019-06-07T04:40:08.478Z,99.90
2019-06-07T04:42:41.779Z,99.90
2019-06-07T04:45:32.461Z,99.90
2019-06-07T04:47:42.390Z,99.90
2019-06-07T04:50:10.322Z,99.90
2019-06-07T04:52:42.718Z,99.90
2019-06-07T04:55:09.146Z,99.90
2019-06-07T04:57:39.492Z,99.90
2019-06-07T05:00:34.269Z,99.60
2019-06-07T05:02:40.878Z,98.10
2019-06-07T05:05:08.457Z,98.10
2019-06-07T05:07:37.913Z,98.40
2019-06-07T05:10:07.174Z,98.50
2019-06-07T05:12:39.495Z,98.10
2019-06-07T05:15:05.977Z,97.10
2019-06-07T05:17:34.712Z,96.50
2019-06-07T05:20:06.038Z,94.90
2019-06-07T05:22:38.904Z,94.30
2019-06-07T05:25:05.257Z,93.90
2019-06-07T05:27:35.899Z,93.70
2019-06-07T05:30:13.553Z,92.70
2019-06-07T05:32:37.560Z,92.60
2019-06-07T05:35:10.669Z,92.20
2019-06-07T05:37:41.803Z,91.80
2019-06-07T05:40:10.305Z,91.80
2019-06-07T05:42:42.833Z,92.40
2019-06-07T05:45:09.422Z,91.70
2019-06-07T05:47:43.631Z,89.70
2019-06-07T05:50:37.972Z,90.50
2019-06-07T05:52:40.494Z,91.30
2019-06-07T05:55:08.623Z,90.90
2019-06-07T05:57:40.576Z,90.50
2019-06-07T06:00:08.805Z,88.50
2019-06-07T06:02:56.595Z,87.80
2019-06-07T06:05:07.605Z,88.50
2019-06-07T06:07:41.231Z,85.90
2019-06-07T06:10:08.280Z,84.20
2019-06-07T06:12:40.846Z,84.00
2019-06-07T06:15:07.694Z,84.30
2019-06-07T06:17:40.280Z,83.70
2019-06-07T06:20:07.338Z,81.70
2019-06-07T06:22:37.423Z,80.70
2019-06-07T06:28:09.571Z,80.90
2019-06-07T06:30:12.444Z,81.00
2019-06-07T06:32:47.213Z,80.10
2019-06-07T06:35:13.788Z,80.40
2019-06-07T06:37:46.513Z,79.90
2019-06-07T06:40:14.542Z,80.40
2019-06-07T06:42:45.445Z,79.00
2019-06-07T06:45:14.729Z,78.90
2019-06-07T06:47:43.963Z,79.80
2019-06-07T06:50:13.929Z,79.00
2019-06-07T06:52:45.176Z,79.80
2019-06-07T06:55:12.739Z,80.90
2019-06-07T06:57:41.807Z,82.00
2019-06-07T07:00:13.154Z,82.80
2019-06-07T07:03:35.091Z,81.30
2019-06-07T07:05:12.336Z,83.20
2019-06-07T07:07:42.623Z,83.60
2019-06-07T07:10:13.606Z,82.50
2019-06-07T07:12:43.073Z,82.60
2019-06-07T07:15:16.657Z,82.60
2019-06-07T07:17:53.903Z,84.10
2019-06-07T07:20:15.488Z,81.60
2019-06-07T07:22:46.335Z,82.30
2019-06-07T07:25:14.201Z,82.00
2019-06-07T07:27:44.471Z,82.20
2019-06-07T07:32:45.581Z,82.00
2019-06-07T07:35:13.770Z,81.30
2019-06-07T07:37:45.348Z,81.10
2019-06-07T07:40:55.289Z,80.70
2019-06-07T07:42:43.325Z,80.90
2019-06-07T07:45:13.253Z,82.50
2019-06-07T07:47:58.434Z,81.20
2019-06-07T07:50:11.932Z,80.40
2019-06-07T07:52:40.381Z,81.10
2019-06-07T07:55:09.086Z,78.60
2019-06-07T07:57:37.713Z,78.70
2019-06-07T08:00:48.741Z,77.80
2019-06-07T08:02:38.481Z,77.30
2019-06-07T08:05:25.153Z,76.30
2019-06-07T08:07:38.446Z,77.60
2019-06-07T08:10:07.604Z,75.40
2019-06-07T08:12:55.805Z,75.20
2019-06-07T08:15:06.937Z,77.50
2019-06-07T08:17:35.618Z,75.90
2019-06-07T08:20:08.583Z,77.30
2019-06-07T08:22:37.024Z,77.50
2019-06-07T08:25:07.381Z,75.50
2019-06-07T08:27:35.914Z,74.70
2019-06-07T08:30:46.489Z,76.30
2019-06-07T08:32:40.408Z,76.30
2019-06-07T08:35:09.395Z,73.90
2019-06-07T08:40:08.491Z,76.70
2019-06-07T08:42:55.316Z,75.40
2019-06-07T08:45:11.085Z,76.40
2019-06-07T08:47:39.675Z,76.50
2019-06-07T08:50:10.232Z,76.20
2019-06-07T08:52:38.679Z,73.40
2019-06-07T08:55:07.818Z,73.50
2019-06-07T08:57:36.400Z,73.10
2019-06-07T09:00:42.308Z,74.60
2019-06-07T09:02:39.220Z,73.70
2019-06-07T09:05:12.545Z,72.50
2019-06-07T09:07:38.425Z,71.80
2019-06-07T09:10:12.941Z,72.90
2019-06-07T09:12:38.271Z,71.80
2019-06-07T09:15:20.986Z,71.50
2019-06-07T09:18:29.757Z,73.50
2019-06-07T09:20:33.520Z,71.60
2019-06-07T09:22:39.879Z,72.90
2019-06-07T09:25:20.089Z,71.70
2019-06-07T09:27:39.526Z,70.10
2019-06-07T09:30:16.262Z,69.90
2019-06-07T09:32:40.404Z,70.90
2019-06-07T09:35:16.852Z,68.90
2019-06-07T09:38:04.157Z,70.00
2019-06-07T09:40:24.144Z,70.10
2019-06-07T09:42:41.417Z,67.90
2019-06-07T09:45:13.959Z,70.00
2019-06-07T09:47:40.429Z,69.00
2019-06-07T09:50:12.209Z,67.50
2019-06-07T09:52:57.125Z,68.30
2019-06-07T09:55:22.916Z,67.70
2019-06-07T09:57:40.128Z,68.20
2019-06-07T10:00:40.209Z,65.30
2019-06-07T10:02:46.253Z,65.40
2019-06-07T10:05:15.125Z,65.80
2019-06-07T10:07:59.624Z,65.60
2019-06-07T10:12:44.644Z,65.20
2019-06-07T10:15:13.642Z,64.50
2019-06-07T10:17:42.080Z,65.70
2019-06-07T10:20:11.039Z,63.90
2019-06-07T10:22:40.293Z,62.90
2019-06-07T10:25:10.473Z,63.90
2019-06-07T10:27:39.165Z,62.70
2019-06-07T10:30:08.398Z,63.40
2019-06-07T10:32:36.864Z,63.00
2019-06-07T10:35:10.145Z,63.10
2019-06-07T10:37:38.874Z,61.40
2019-06-07T10:40:09.291Z,62.20
2019-06-07T10:42:37.920Z,60.90
2019-06-07T10:45:08.341Z,62.30
2019-06-07T10:47:37.945Z,64.60
2019-06-07T10:50:08.402Z,61.20
2019-06-07T10:52:37.011Z,59.00
2019-06-07T10:55:06.660Z,59.40
2019-06-07T10:57:35.129Z,58.90
2019-06-07T11:00:05.327Z,57.70
2019-06-07T11:02:33.781Z,59.50
2019-06-07T11:05:03.614Z,61.60
2019-06-07T11:07:32.203Z,59.50
2019-06-07T11:10:07.454Z,61.10
2019-06-07T11:12:30.789Z,61.60
2019-06-07T11:14:59.269Z,61.90
2019-06-07T11:17:27.806Z,61.60
2019-06-07T11:19:56.393Z,61.20
2019-06-07T11:22:24.837Z,58.80
2019-06-07T11:24:53.277Z,59.80
2019-06-07T11:27:21.785Z,60.90
2019-06-07T11:29:50.311Z,60.40
2019-06-07T11:32:18.902Z,59.60
2019-06-07T11:34:47.337Z,60.50
2019-06-07T11:37:16.174Z,60.60
2019-06-07T11:39:44.795Z,59.70
2019-06-07T11:42:14.014Z,59.40
2019-06-07T11:44:56.200Z,60.90
2019-06-07T11:47:14.397Z,60.80
2019-06-07T11:49:43.134Z,59.50
2019-06-07T11:52:11.557Z,58.30
2019-06-07T11:54:39.980Z,58.40
2019-06-07T11:57:08.825Z,57.20
2019-06-07T11:59:37.492Z,58.20
2019-06-07T12:02:07.123Z,59.30
2019-06-07T12:04:35.680Z,60.30
2019-06-07T12:07:04.308Z,58.90
2019-06-07T12:09:32.970Z,58.20
2019-06-07T12:12:01.384Z,57.50
2019-06-07T12:14:29.825Z,57.60
2019-06-07T12:16:58.337Z,58.70
2019-06-07T12:19:26.777Z,57.70
2019-06-07T12:21:55.197Z,56.40
2019-06-07T12:24:23.645Z,56.50
2019-06-07T12:26:52.093Z,55.60
2019-06-07T12:29:21.110Z,57.30
2019-06-07T12:31:49.735Z,57.60
2019-06-07T12:34:19.429Z,57.40
2019-06-07T12:36:48.114Z,57.00
2019-06-07T12:39:16.529Z,55.80
2019-06-07T12:41:44.967Z,56.10
2019-06-07T12:44:14.593Z,56.30
2019-06-07T12:46:43.141Z,55.80
2019-06-07T12:49:12.887Z,55.00
2019-06-07T12:51:41.559Z,56.50
2019-06-07T12:54:10.013Z,56.50
2019-06-07T12:56:38.453Z,56.00
2019-06-07T12:59:06.997Z,54.00
2019-06-07T13:01:35.493Z,54.60
2019-06-07T13:04:03.991Z,52.90
2019-06-07T13:06:32.433Z,53.40
2019-06-07T13:09:00.849Z,52.80
2019-06-07T13:11:31.531Z,52.60
2019-06-07T13:13:59.439Z,53.20
2019-06-07T13:16:28.463Z,52.40
2019-06-07T13:18:57.089Z,52.60
2019-06-07T13:21:25.517Z,52.20
2019-06-07T13:23:53.929Z,52.20
2019-06-07T13:26:23.081Z,52.30
2019-06-07T13:28:51.902Z,50.90
2019-06-07T13:31:21.057Z,52.30
2019-06-07T13:33:49.937Z,51.10
2019-06-07T13:36:18.378Z,51.50
2019-06-07T13:38:46.805Z,51.60
2019-06-07T13:41:31.609Z,49.70
2019-06-07T13:43:45.502Z,49.70
2019-06-07T13:46:13.915Z,50.20
2019-06-07T13:48:42.364Z,50.40
2019-06-07T13:51:10.778Z,49.40
2019-06-07T13:53:39.225Z,49.80
2019-06-07T13:56:07.646Z,49.40
2019-06-07T13:58:36.121Z,50.80
2019-06-07T14:01:04.605Z,50.60
2019-06-07T14:03:34.014Z,50.80
2019-06-07T14:06:02.805Z,50.80
2019-06-07T14:08:31.250Z,52.10
2019-06-07T14:10:59.754Z,52.00
2019-06-07T14:13:28.223Z,56.50
2019-06-07T14:15:56.741Z,55.90
2019-06-07T14:18:26.324Z,58.60
2019-06-07T14:20:54.871Z,62.20
2019-06-07T14:23:39.039Z,66.00
2019-06-07T14:25:53.448Z,71.70
2019-06-07T14:28:26.293Z,81.40
2019-06-07T14:30:52.045Z,86.50
2019-06-07T14:33:23.491Z,89.90
2019-06-07T14:35:50.661Z,86.20
2019-06-07T14:38:19.161Z,82.90
2019-06-07T14:40:47.616Z,89.10
2019-06-07T14:43:16.044Z,90.70
2019-06-07T14:45:44.583Z,91.00
2019-06-07T14:48:13.005Z,92.20
2019-06-07T14:50:41.454Z,90.40
2019-06-07T14:53:09.961Z,90.70
2019-06-07T14:55:38.400Z,93.00
2019-06-07T14:58:06.828Z,91.60
2019-06-07T15:00:43.748Z,92.90
2019-06-07T15:03:12.424Z,94.50
2019-06-07T15:05:40.937Z,95.10
2019-06-07T15:08:09.444Z,95.90
2019-06-07T15:10:40.756Z,95.40
2019-06-07T15:13:09.312Z,96.00
2019-06-07T15:15:39.825Z,96.20
2019-06-07T15:18:08.243Z,96.00
2019-06-07T15:20:38.166Z,97.00
2019-06-07T15:23:08.524Z,98.40
2019-06-07T15:25:37.008Z,97.70
2019-06-07T15:28:05.492Z,96.70
2019-06-07T15:30:33.939Z,93.80
2019-06-07T15:33:05.901Z,90.90
2019-06-07T15:35:36.017Z,91.00
2019-06-07T15:38:04.818Z,91.80
2019-06-07T15:40:33.345Z,91.20
2019-06-07T15:43:01.774Z,93.30
2019-06-07T15:45:31.357Z,93.50
2019-06-07T15:48:00.110Z,93.90
2019-06-07T15:50:29.258Z,94.50
2019-06-07T15:52:58.705Z,93.60
2019-06-07T15:55:27.202Z,94.20
2019-06-07T15:57:55.630Z,93.90
2019-06-07T16:00:25.609Z,93.70
2019-06-07T16:02:56.482Z,94.40
2019-06-07T16:05:25.070Z,93.30
2019-06-07T16:07:53.525Z,94.10
2019-06-07T16:10:22.021Z,92.50
2019-06-07T16:13:00.073Z,91.80
2019-06-07T16:15:24.982Z,86.80
2019-06-07T16:17:57.768Z,78.10
2019-06-07T16:20:25.448Z,77.20
2019-06-07T16:22:53.914Z,72.20
2019-06-07T16:25:28.034Z,76.40
2019-06-07T16:27:56.619Z,78.20
2019-06-07T16:30:25.221Z,78.10
2019-06-07T16:32:55.218Z,79.80
2019-06-07T16:35:23.666Z,77.60
2019-06-07T16:37:52.673Z,73.20
2019-06-07T16:40:21.464Z,76.00
2019-06-07T16:42:51.503Z,75.60
2019-06-07T16:45:21.857Z,73.00
2019-06-07T16:47:53.484Z,74.70
2019-06-07T16:50:21.981Z,76.30
2019-06-07T16:52:50.464Z,79.00
2019-06-07T16:55:22.169Z,77.60
2019-06-07T16:57:57.962Z,78.60
2019-06-07T17:00:26.650Z,78.50
2019-06-07T17:02:55.252Z,78.30
2019-06-07T17:05:23.694Z,79.50
2019-06-07T17:07:56.223Z,79.10
2019-06-07T17:10:26.306Z,78.60
2019-06-07T17:12:58.795Z,77.50
2019-06-07T17:15:27.407Z,78.60
2019-06-07T17:17:55.891Z,75.70
2019-06-07T17:20:24.341Z,76.10
2019-06-07T17:22:55.130Z,77.10
2019-06-07T17:25:23.649Z,75.90
2019-06-07T17:27:55.995Z,74.50
2019-06-07T17:30:24.676Z,75.60
2019-06-07T17:32:58.969Z,74.60
2019-06-07T17:35:23.292Z,74.10
2019-06-07T17:37:51.705Z,72.80
2019-06-07T17:40:20.576Z,73.90
2019-06-07T17:42:51.142Z,74.50
2019-06-07T17:45:21.264Z,71.90
2019-06-07T17:47:52.516Z,73.20
2019-06-07T17:50:21.206Z,70.90
2019-06-07T17:52:50.166Z,70.20
2019-06-07T17:55:20.461Z,69.90
2019-06-07T17:57:49.028Z,70.90
2019-06-07T18:00:28.791Z,69.50
2019-06-07T18:02:53.085Z,69.70
2019-06-07T18:05:26.332Z,71.10
2019-06-07T18:07:59.648Z,70.50
2019-06-07T18:10:37.554Z,69.80
2019-06-07T18:13:06.419Z,69.10
2019-06-07T18:15:51.674Z,70.60
2019-06-07T18:18:17.870Z,69.40
2019-06-07T18:20:47.247Z,70.40
2019-06-07T18:23:17.652Z,69.40
2019-06-07T18:25:46.437Z,69.40
2019-06-07T18:28:15.489Z,68.90
2019-06-07T18:30:44.089Z,70.20
2019-06-07T18:33:12.573Z,69.20
2019-06-07T18:35:43.121Z,68.50
2019-06-07T18:38:11.653Z,69.00
2019-06-07T18:40:43.701Z,70.30
2019-06-07T18:43:12.172Z,72.80
2019-06-07T18:45:40.601Z,71.30
2019-06-07T18:48:09.109Z,73.00
2019-06-07T18:50:37.608Z,72.00
2019-06-07T18:53:06.044Z,72.60
2019-06-07T18:55:34.539Z,72.70
2019-06-07T18:58:03.002Z,73.80
2019-06-07T19:00:31.958Z,74.90
2019-06-07T19:03:03.464Z,77.20
2019-06-07T19:05:31.901Z,76.70
2019-06-07T19:08:02.003Z,76.20
2019-06-07T19:10:30.521Z,77.10
2019-06-07T19:13:01.819Z,80.60
2019-06-07T19:15:34.593Z,78.20
2019-06-07T19:18:03.113Z,80.70
2019-06-07T19:20:31.627Z,82.70
2019-06-07T19:23:02.448Z,81.40
2019-06-07T19:25:30.873Z,79.40
2019-06-07T19:27:59.394Z,81.90
2019-06-07T19:30:28.033Z,80.90
2019-06-07T19:32:57.326Z,80.10
2019-06-07T19:35:26.024Z,80.70
2019-06-07T19:37:55.753Z,78.80
2019-06-07T19:40:24.693Z,81.00
2019-06-07T19:42:54.126Z,78.10
2019-06-07T19:45:30.657Z,81.30
2019-06-07T19:48:00.730Z,81.50
2019-06-07T19:50:29.328Z,81.20
2019-06-07T19:52:59.090Z,83.00
2019-06-07T19:55:31.801Z,80.70
2019-06-07T19:58:01.637Z,81.30
2019-06-07T20:00:32.812Z,84.60
2019-06-07T20:03:02.273Z,79.90
2019-06-07T20:05:33.835Z,79.20
2019-06-07T20:08:01.011Z,80.20
2019-06-07T20:10:31.011Z,80.20
2019-06-07T20:13:00.695Z,79.50
2019-06-07T20:15:29.775Z,79.50
2019-06-07T20:17:59.263Z,79.90
2019-06-07T20:20:30.847Z,79.30
2019-06-07T20:23:00.822Z,77.70
2019-06-07T20:25:29.430Z,78.50
2019-06-07T20:27:59.459Z,78.80
2019-06-07T20:30:28.172Z,79.00
2019-06-07T20:32:59.960Z,77.80
2019-06-07T20:35:28.485Z,81.10
2019-06-07T20:37:56.925Z,82.50
2019-06-07T20:40:25.469Z,79.10
2019-06-07T20:42:53.946Z,81.50
2019-06-07T20:45:33.119Z,85.00
2019-06-07T20:47:54.244Z,86.70
2019-06-07T20:50:24.345Z,89.10
2019-06-07T20:52:52.776Z,88.70
2019-06-07T20:55:21.228Z,90.10
2019-06-07T20:57:51.256Z,88.00
2019-06-07T21:00:22.022Z,90.00
2019-06-07T21:02:49.992Z,90.60
2019-06-07T21:05:18.522Z,91.40
2019-06-07T21:07:49.330Z,91.80
2019-06-07T21:10:17.126Z,91.30
2019-06-07T21:12:45.584Z,91.90
2019-06-07T21:15:14.648Z,92.20
2019-06-07T21:17:43.415Z,92.60
2019-06-07T21:20:14.484Z,93.70
2019-06-07T21:22:42.388Z,93.30
2019-06-07T21:25:12.523Z,93.40
2019-06-07T21:27:43.949Z,93.00
2019-06-07T21:30:14.064Z,92.50
2019-06-07T21:32:42.586Z,92.00
2019-06-07T21:35:12.716Z,92.50
2019-06-07T21:37:41.310Z,92.90
2019-06-07T21:40:12.203Z,93.50
2019-06-07T21:42:40.195Z,93.50
2019-06-07T21:45:14.804Z,94.80
2019-06-07T21:47:43.256Z,94.50
2019-06-07T21:50:12.801Z,95.00
2019-06-07T21:52:43.077Z,95.40
2019-06-07T21:55:13.702Z,95.70
2019-06-07T21:57:42.209Z,96.60
2019-06-07T22:00:27.218Z,95.90
2019-06-07T22:02:55.682Z,96.10
2019-06-07T22:05:24.097Z,95.90
2019-06-07T22:07:54.060Z,95.60
2019-06-07T22:10:22.473Z,95.20
2019-06-07T22:12:50.999Z,95.10
2019-06-07T22:15:32.851Z,94.20
2019-06-07T22:17:49.654Z,93.90
2019-06-07T22:20:18.151Z,94.30
2019-06-07T22:22:46.576Z,95.10
2019-06-07T22:25:15.171Z,94.20
2019-06-07T22:27:43.716Z,94.00
2019-06-07T22:30:14.628Z,94.20
2019-06-07T22:32:46.224Z,94.80
2019-06-07T22:35:16.229Z,94.40
2019-06-07T22:37:44.674Z,94.80
2019-06-07T22:40:14.578Z,93.80
2019-06-07T22:42:46.024Z,94.40
2019-06-07T22:45:18.894Z,93.30
2019-06-07T22:47:47.393Z,93.40
2019-06-07T22:50:16.378Z,93.40
2019-06-07T22:52:46.447Z,94.00
2019-06-07T22:55:15.886Z,93.10
2019-06-07T22:57:54.940Z,92.90
2019-06-07T23:00:24.494Z,93.30
2019-06-07T23:02:52.903Z,93.20
2019-06-07T23:05:21.341Z,93.20
2019-06-07T23:07:49.770Z,94.00
2019-06-07T23:10:19.652Z,93.60
2019-06-07T23:12:48.192Z,94.10
2019-06-07T23:15:18.291Z,94.30
2019-06-07T23:17:47.767Z,94.20
2019-06-07T23:20:18.375Z,94.20
2019-06-07T23:22:48.432Z,94.10
2019-06-07T23:25:20.835Z,95.20
2019-06-07T23:27:47.514Z,95.20
2019-06-07T23:30:19.005Z,95.10
2019-06-07T23:32:50.235Z,95.30
2019-06-07T23:35:21.570Z,95.50
2019-06-07T23:37:49.983Z,95.50
2019-06-07T23:40:19.466Z,96.20
2019-06-07T23:42:50.794Z,95.90
2019-06-07T23:45:21.718Z,96.00
2019-06-07T23:47:50.269Z,96.10
2019-06-07T23:50:19.881Z,95.60
2019-06-07T23:52:51.254Z,96.20
2019-06-07T23:55:20.109Z,95.10
2019-06-07T23:57:48.756Z,95.60
